EEL RIVER CAMP RAWS NEAR REDWAY 2NE HADS current weather conditions

sailwx.info

Wind from 178

Air temperature 9.4° C
Dewpoint 9.4° C

Last reported at 2017-Oct-20 09:28 UTC.
Time now 2017-Oct-20 10:39 UTC

Location: N 40°08' W 123°49'.
View on Google Maps.

See reports from other nearby stations

  
Tides and Currents Weather Stations Pressure Air Temp Water Temp Dewpoint Dewpoint Depression Visibility Wind Speed Wind Dir Waves Ship Positions
date/time (UTC)wind fromknots sea level pressurealtimeterstation pressurevisibilityair tempwater tempwave heightnotes
2017-Oct-20 09:28 178 9.4
2017-Oct-20 08:28 051 0 gusting 3 9.4
2017-Oct-20 07:28 324 0 gusting 2 9.4
2017-Oct-20 06:28 070 0 gusting 2 10.0
2017-Oct-20 05:28 067 0 gusting 4 10.6
2017-Oct-20 04:28 157 2 gusting 8 10.6
2017-Oct-20 03:28 212 0 gusting 6 12.2
2017-Oct-20 02:28 263 4 gusting 13 12.8
2017-Oct-20 01:28 209 4 gusting 13 14.4
2017-Oct-20 00:28 194 6 gusting 13 14.4
2017-Oct-19 23:28 220 6 gusting 15 15.6
2017-Oct-19 22:28 217 5 gusting 11 15.6
2017-Oct-19 21:28 226 4 gusting 12 16.7
2017-Oct-19 20:28 207 5 gusting 15 16.1
2017-Oct-19 19:28 197 5 gusting 11 16.1
2017-Oct-19 18:28 185 2 gusting 7 15.0
2017-Oct-19 17:28 300 14.4
2017-Oct-19 16:28 144 1 gusting 3 12.8
2017-Oct-19 15:28 184 0 gusting 2 11.7
2017-Oct-19 14:28 313 1 gusting 2 10.6
2017-Oct-19 13:28 073 11.1
2017-Oct-19 12:28 035 11.1
2017-Oct-19 11:28 229 11.1
2017-Oct-19 10:28 131 11.1
2017-Oct-19 09:28 296 11.1
2017-Oct-19 08:28 300 0 gusting 3 11.1
2017-Oct-19 07:28 091 9.4
2017-Oct-19 06:28 287 7.8
2017-Oct-19 05:28 016 8.9
2017-Oct-19 04:28 059 10.0
2017-Oct-19 03:28 261 11.7
2017-Oct-19 02:28 298 0 gusting 5 14.4
2017-Oct-19 01:28 180 3 gusting 11 19.4
2017-Oct-19 00:28 163 4 gusting 12 23.9
2017-Oct-18 23:28 161 6 gusting 9 26.7
2017-Oct-18 22:28 198 4 gusting 10 28.9
2017-Oct-18 21:28 232 2 gusting 6 28.3
2017-Oct-18 20:28 196 0 gusting 3 26.1
2017-Oct-18 19:28 185 0 gusting 3 22.2
2017-Oct-18 18:28 166 0 gusting 2 17.8
2017-Oct-18 17:28 156 0 gusting 2 13.3
2017-Oct-18 16:28 056 7.8
2017-Oct-18 15:28 189 5.0
2017-Oct-18 14:28 251 4.4
2017-Oct-18 13:28 251 3.3
2017-Oct-18 12:28 253 3.9
2017-Oct-18 11:28 287 4.4
2017-Oct-18 10:28 293 4.4